Time;durP1;ratioP1;P1;durP2;ratioP2;P2;SDS_P1;SDS_P2;PMS_P1;PMS_P2;Temp;Humidity;BMP_temperature;BMP_pressure;BME280_temperature;BME280_humidity;BME280_pressure;Samples;Min_cycle;Max_cycle;Signal;HPM_P1;HPM_P2
2022/05/14 00:01:07;;;;;;;;;;;13.20;99.90;;;;;;5063463;28;19928;-71
2022/05/14 00:03:39;;;;;;;;;;;13.20;99.90;;;;;;5051235;28;19928;-72
2022/05/14 00:06:13;;;;;;;;;;;13.20;99.90;;;;;;5063103;28;19924;-72
2022/05/14 00:08:45;;;;;;;;;;;13.20;99.90;;;;;;5060099;28;19928;-72
2022/05/14 00:14:08;;;;;;;;;;;13.20;99.90;;;;;;5063420;28;19929;-71
2022/05/14 00:16:40;;;;;;;;;;;13.20;99.90;;;;;;5062908;28;19932;-71
2022/05/14 00:19:12;;;;;;;;;;;13.10;99.90;;;;;;5058229;28;20377;-72
2022/05/14 00:21:43;;;;;;;;;;;13.10;99.90;;;;;;5062014;28;19925;-72
2022/05/14 00:24:16;;;;;;;;;;;13.10;99.90;;;;;;5059194;28;19925;-72
2022/05/14 00:26:48;;;;;;;;;;;13.10;99.90;;;;;;5057136;28;19936;-72
2022/05/14 00:29:20;;;;;;;;;;;13.10;99.90;;;;;;5061018;28;19924;-72
2022/05/14 00:31:46;;;;;;;;;;;13.00;99.90;;;;;;5050156;28;19928;-72
2022/05/14 00:34:18;;;;;;;;;;;13.00;99.90;;;;;;5060716;28;19932;-72
2022/05/14 00:36:49;;;;;;;;;;;12.90;99.90;;;;;;5056368;28;19936;-72
2022/05/14 00:39:21;;;;;;;;;;;12.80;99.90;;;;;;5062991;28;20011;-72
2022/05/14 00:41:53;;;;;;;;;;;12.80;99.90;;;;;;5053917;28;19925;-72
2022/05/14 00:44:25;;;;;;;;;;;12.80;99.90;;;;;;5046525;28;19928;-72
2022/05/14 00:47:01;;;;;;;;;;;12.70;99.90;;;;;;5065602;28;20380;-72
2022/05/14 00:49:33;;;;;;;;;;;12.70;99.90;;;;;;5068503;28;20220;-73
2022/05/14 00:52:07;;;;;;;;;;;12.60;99.90;;;;;;5050128;28;20046;-72
2022/05/14 00:55:05;;;;;;;;;;;12.60;99.90;;;;;;5055987;28;19932;-72
2022/05/14 00:57:38;;;;;;;;;;;12.50;99.90;;;;;;5056688;28;19924;-72
2022/05/14 01:00:11;;;;;;;;;;;12.50;99.90;;;;;;5058031;28;20015;-72
2022/05/14 01:02:43;;;;;;;;;;;12.40;99.90;;;;;;5068177;28;20297;-71
2022/05/14 01:05:16;;;;;;;;;;;12.40;99.90;;;;;;5066135;28;19975;-72
2022/05/14 01:07:51;;;;;;;;;;;12.40;99.90;;;;;;5078808;28;19928;-72
2022/05/14 01:10:25;;;;;;;;;;;12.40;99.90;;;;;;5058641;28;19925;-72
2022/05/14 01:13:00;;;;;;;;;;;12.40;99.90;;;;;;5064721;28;19925;-72
2022/05/14 01:16:01;;;;;;;;;;;12.40;99.90;;;;;;5067571;28;19931;-72
2022/05/14 01:18:34;;;;;;;;;;;12.40;99.90;;;;;;5050091;28;19964;-72
2022/05/14 01:21:05;;;;;;;;;;;12.40;99.90;;;;;;5054022;28;20292;-72
2022/05/14 01:26:27;;;;;;;;;;;12.40;99.90;;;;;;5066428;28;19925;-72
2022/05/14 01:26:31;;;;;;;;;;;12.50;99.90;;;;;;5064085;28;19924;-72
2022/05/14 01:29:15;;;;;;;;;;;12.50;99.90;;;;;;5055129;28;20408;-73
2022/05/14 01:31:50;;;;;;;;;;;12.50;99.90;;;;;;5068333;28;20351;-72
2022/05/14 01:34:25;;;;;;;;;;;12.50;99.90;;;;;;5053734;28;19929;-72
2022/05/14 01:36:58;;;;;;;;;;;12.50;99.90;;;;;;5069412;28;19928;-71
2022/05/14 01:39:30;;;;;;;;;;;12.50;99.90;;;;;;5067171;28;19936;-73
2022/05/14 01:42:03;;;;;;;;;;;12.40;99.90;;;;;;5067343;28;19932;-72
2022/05/14 01:44:35;;;;;;;;;;;12.40;99.90;;;;;;5060083;28;19925;-73
2022/05/14 01:47:06;;;;;;;;;;;12.40;99.90;;;;;;5064750;28;19932;-72
2022/05/14 01:49:38;;;;;;;;;;;12.40;99.90;;;;;;5062333;28;19986;-72
2022/05/14 01:52:10;;;;;;;;;;;12.40;99.90;;;;;;5066861;28;19924;-72
2022/05/14 01:54:42;;;;;;;;;;;12.30;99.90;;;;;;5057477;28;19931;-72
2022/05/14 01:57:09;;;;;;;;;;;12.30;99.90;;;;;;5070188;28;20030;-72
2022/05/14 01:59:37;;;;;;;;;;;12.30;99.90;;;;;;5071108;28;19936;-72
2022/05/14 02:02:10;;;;;;;;;;;12.20;99.90;;;;;;5062615;28;20305;-72
2022/05/14 02:04:41;;;;;;;;;;;12.20;99.90;;;;;;5055298;28;20393;-72
2022/05/14 02:07:13;;;;;;;;;;;12.10;99.90;;;;;;5063629;28;20388;-72
2022/05/14 02:09:44;;;;;;;;;;;12.20;99.90;;;;;;5057817;28;19928;-72
2022/05/14 02:12:16;;;;;;;;;;;12.20;99.90;;;;;;5078113;28;19990;-72
2022/05/14 02:14:48;;;;;;;;;;;12.10;99.90;;;;;;5063985;28;20019;-72
2022/05/14 02:17:20;;;;;;;;;;;12.20;99.90;;;;;;5062853;28;20013;-72
2022/05/14 02:19:51;;;;;;;;;;;12.20;99.90;;;;;;5058647;28;19936;-72
2022/05/14 02:22:23;;;;;;;;;;;12.20;99.90;;;;;;5055234;28;19928;-72
2022/05/14 02:24:55;;;;;;;;;;;12.20;99.90;;;;;;5060597;28;20309;-72
2022/05/14 02:27:26;;;;;;;;;;;12.20;99.90;;;;;;5067440;28;19925;-72
2022/05/14 02:29:58;;;;;;;;;;;12.10;99.90;;;;;;5061684;28;19925;-72
2022/05/14 02:32:30;;;;;;;;;;;12.00;99.90;;;;;;5065811;28;20433;-73
2022/05/14 02:35:01;;;;;;;;;;;12.00;99.90;;;;;;5060251;28;19925;-72
2022/05/14 02:37:33;;;;;;;;;;;12.00;99.90;;;;;;5073840;28;19925;-72
2022/05/14 02:40:06;;;;;;;;;;;11.90;99.90;;;;;;5060267;28;20393;-72
2022/05/14 02:42:38;;;;;;;;;;;11.80;99.90;;;;;;5066073;28;19982;-72
2022/05/14 02:45:10;;;;;;;;;;;11.80;99.90;;;;;;5064676;28;20019;-71
2022/05/14 02:47:42;;;;;;;;;;;11.70;99.90;;;;;;5070286;28;20301;-72
2022/05/14 02:50:14;;;;;;;;;;;11.70;99.90;;;;;;5068849;28;19924;-72
2022/05/14 02:52:46;;;;;;;;;;;11.70;99.90;;;;;;5068480;28;20408;-71
2022/05/14 02:55:18;;;;;;;;;;;11.60;99.90;;;;;;5059384;28;19946;-72
2022/05/14 02:57:49;;;;;;;;;;;11.70;99.90;;;;;;5058565;28;19932;-72
2022/05/14 03:00:21;;;;;;;;;;;11.70;99.90;;;;;;5071018;28;19929;-72
2022/05/14 03:02:53;;;;;;;;;;;11.60;99.90;;;;;;5061779;28;19933;-72
2022/05/14 03:05:25;;;;;;;;;;;11.60;99.90;;;;;;5068867;28;19932;-72
2022/05/14 03:07:56;;;;;;;;;;;11.60;99.90;;;;;;5064242;28;19925;-72
2022/05/14 03:10:28;;;;;;;;;;;11.60;99.90;;;;;;5078925;28;19929;-71
2022/05/14 03:12:55;;;;;;;;;;;11.60;99.90;;;;;;5068330;28;20023;-72
2022/05/14 03:15:27;;;;;;;;;;;11.60;99.90;;;;;;5064612;28;19929;-71
2022/05/14 03:17:58;;;;;;;;;;;11.50;99.90;;;;;;5066437;28;20396;-71
2022/05/14 03:20:30;;;;;;;;;;;11.50;99.90;;;;;;5074852;28;19975;-72
2022/05/14 03:23:02;;;;;;;;;;;11.50;99.90;;;;;;5065139;28;20015;-72
2022/05/14 03:25:34;;;;;;;;;;;11.40;99.90;;;;;;5067186;28;19929;-72
2022/05/14 03:28:05;;;;;;;;;;;11.40;99.90;;;;;;5058789;28;20415;-72
2022/05/14 03:30:37;;;;;;;;;;;11.30;99.90;;;;;;5061525;28;19928;-71
2022/05/14 03:33:09;;;;;;;;;;;11.30;99.90;;;;;;5062766;28;19925;-72
2022/05/14 03:35:41;;;;;;;;;;;11.30;99.90;;;;;;5076647;28;19939;-72
2022/05/14 03:38:13;;;;;;;;;;;11.20;99.90;;;;;;5060767;28;19935;-72
2022/05/14 03:40:44;;;;;;;;;;;11.20;99.90;;;;;;5081616;28;19950;-72
2022/05/14 03:43:16;;;;;;;;;;;11.20;99.90;;;;;;5068941;28;19929;-72
2022/05/14 03:45:48;;;;;;;;;;;11.20;99.90;;;;;;5058641;28;19935;-71
2022/05/14 03:48:19;;;;;;;;;;;11.20;99.90;;;;;;5065368;28;19929;-72
2022/05/14 03:50:52;;;;;;;;;;;11.20;99.90;;;;;;5065182;28;20266;-72
2022/05/14 03:53:24;;;;;;;;;;;11.20;99.90;;;;;;5061611;28;19929;-71
2022/05/14 03:55:56;;;;;;;;;;;11.20;99.90;;;;;;5061069;28;19948;-72
2022/05/14 03:58:27;;;;;;;;;;;11.20;99.90;;;;;;5064039;28;19925;-71
2022/05/14 04:00:59;;;;;;;;;;;11.20;99.90;;;;;;5062043;28;19924;-72
2022/05/14 04:03:26;;;;;;;;;;;11.20;99.90;;;;;;5052620;28;19928;-72
2022/05/14 04:05:52;;;;;;;;;;;11.20;99.90;;;;;;5062632;28;19928;-72
2022/05/14 04:08:24;;;;;;;;;;;11.20;99.90;;;;;;5066700;28;20248;-72
2022/05/14 04:10:56;;;;;;;;;;;11.20;99.90;;;;;;5053385;28;19924;-72
2022/05/14 04:13:27;;;;;;;;;;;11.20;99.90;;;;;;5060972;28;20460;-73
2022/05/14 04:15:59;;;;;;;;;;;11.10;99.90;;;;;;5067596;28;19924;-72
2022/05/14 04:18:31;;;;;;;;;;;11.10;99.90;;;;;;5066962;28;19929;-72
2022/05/14 04:21:02;;;;;;;;;;;11.10;99.90;;;;;;5053335;28;20352;-72
2022/05/14 04:23:30;;;;;;;;;;;11.10;99.90;;;;;;5058640;28;19929;-74
2022/05/14 04:26:02;;;;;;;;;;;11.20;99.90;;;;;;5061011;28;19925;-73
2022/05/14 04:28:34;;;;;;;;;;;11.20;99.90;;;;;;5057058;28;19932;-72
2022/05/14 04:31:06;;;;;;;;;;;11.20;99.90;;;;;;5063380;28;20385;-72
2022/05/14 04:33:37;;;;;;;;;;;11.30;99.90;;;;;;5065371;28;20386;-72
2022/05/14 04:36:09;;;;;;;;;;;11.30;99.90;;;;;;5059768;28;19939;-72
2022/05/14 04:38:41;;;;;;;;;;;11.30;99.90;;;;;;5060904;28;19936;-72
2022/05/14 04:41:12;;;;;;;;;;;11.40;99.90;;;;;;5061132;28;20003;-72
2022/05/14 04:43:45;;;;;;;;;;;11.40;99.90;;;;;;5062123;28;19935;-72
2022/05/14 04:46:17;;;;;;;;;;;11.40;99.90;;;;;;5080800;28;19981;-72
2022/05/14 04:48:48;;;;;;;;;;;11.50;99.90;;;;;;5069551;28;19931;-72
2022/05/14 04:51:20;;;;;;;;;;;11.50;99.90;;;;;;5060586;28;19972;-72
2022/05/14 04:53:51;;;;;;;;;;;11.50;99.90;;;;;;5053652;28;19935;-72
2022/05/14 04:56:23;;;;;;;;;;;11.60;99.90;;;;;;5069792;28;19948;-72
2022/05/14 04:58:55;;;;;;;;;;;11.60;99.90;;;;;;5064075;28;19929;-72
2022/05/14 05:01:27;;;;;;;;;;;11.60;99.90;;;;;;5058865;28;19925;-72
2022/05/14 05:03:58;;;;;;;;;;;11.70;99.90;;;;;;5060878;28;20015;-72
2022/05/14 05:06:30;;;;;;;;;;;11.70;99.90;;;;;;5074331;28;19924;-72
2022/05/14 05:09:02;;;;;;;;;;;11.70;99.90;;;;;;5057803;28;19925;-72
2022/05/14 05:11:34;;;;;;;;;;;11.80;99.90;;;;;;5063709;28;19925;-72
2022/05/14 05:14:01;;;;;;;;;;;11.80;99.90;;;;;;5071225;28;19936;-72
2022/05/14 05:16:33;;;;;;;;;;;11.80;99.90;;;;;;5065911;28;19928;-72
2022/05/14 05:19:04;;;;;;;;;;;11.80;99.90;;;;;;5061717;28;19924;-72
2022/05/14 05:21:36;;;;;;;;;;;11.80;99.90;;;;;;5062459;28;20468;-72
2022/05/14 05:24:07;;;;;;;;;;;11.80;99.90;;;;;;5058600;28;20412;-72
2022/05/14 05:26:39;;;;;;;;;;;11.90;99.90;;;;;;5068675;28;20491;-72
2022/05/14 05:29:11;;;;;;;;;;;11.90;99.90;;;;;;5062075;28;19924;-72
2022/05/14 05:31:42;;;;;;;;;;;11.90;99.90;;;;;;5073414;28;19924;-72
2022/05/14 05:34:14;;;;;;;;;;;11.90;99.90;;;;;;5069610;28;19929;-72
2022/05/14 05:36:46;;;;;;;;;;;11.90;99.90;;;;;;5064629;28;19924;-72
2022/05/14 05:39:17;;;;;;;;;;;12.00;99.90;;;;;;5062921;28;20396;-72
2022/05/14 05:41:49;;;;;;;;;;;12.00;99.90;;;;;;5064911;28;20420;-72
2022/05/14 05:44:20;;;;;;;;;;;12.00;99.90;;;;;;5059222;28;20463;-72
2022/05/14 05:46:53;;;;;;;;;;;12.10;99.90;;;;;;5073180;28;20281;-72
2022/05/14 05:49:24;;;;;;;;;;;12.10;99.90;;;;;;5069556;28;19924;-72
2022/05/14 05:51:56;;;;;;;;;;;12.10;99.90;;;;;;5064387;28;19931;-72
2022/05/14 05:57:17;;;;;;;;;;;12.20;99.90;;;;;;5064244;28;19943;-72
2022/05/14 05:59:49;;;;;;;;;;;12.30;99.90;;;;;;5064227;28;20316;-73
2022/05/14 06:02:21;;;;;;;;;;;12.30;99.90;;;;;;5103780;27;19946;-72
2022/05/14 06:04:53;;;;;;;;;;;12.40;99.90;;;;;;5070160;28;20463;-72
2022/05/14 06:07:24;;;;;;;;;;;12.40;99.90;;;;;;5070922;28;19931;-72
2022/05/14 06:09:56;;;;;;;;;;;12.50;99.90;;;;;;5081461;28;20409;-72
2022/05/14 06:12:28;;;;;;;;;;;12.60;99.90;;;;;;5074329;28;20435;-72
2022/05/14 06:14:59;;;;;;;;;;;12.70;99.90;;;;;;5100045;27;19931;-72
2022/05/14 06:17:31;;;;;;;;;;;12.70;99.90;;;;;;5069767;28;19932;-72
2022/05/14 06:20:07;;;;;;;;;;;12.70;99.90;;;;;;5073580;28;19928;-72
2022/05/14 06:22:38;;;;;;;;;;;12.80;99.90;;;;;;5068037;28;19936;-72
2022/05/14 06:25:11;;;;;;;;;;;12.90;99.90;;;;;;5058247;28;19932;-72
2022/05/14 06:27:43;;;;;;;;;;;13.00;99.90;;;;;;5058629;28;20409;-71
2022/05/14 06:30:15;;;;;;;;;;;13.20;99.90;;;;;;5061054;28;19931;-73
2022/05/14 06:32:47;;;;;;;;;;;13.30;99.90;;;;;;5063613;28;19944;-72
2022/05/14 06:35:18;;;;;;;;;;;13.50;99.90;;;;;;5061192;28;19935;-72
2022/05/14 06:37:50;;;;;;;;;;;13.60;99.90;;;;;;5074957;28;19924;-72
2022/05/14 06:40:21;;;;;;;;;;;13.70;99.90;;;;;;5081342;28;19994;-72
2022/05/14 06:42:53;;;;;;;;;;;13.80;99.90;;;;;;5064445;28;19928;-72
2022/05/14 06:45:25;;;;;;;;;;;13.80;99.90;;;;;;5063723;28;19926;-72
2022/05/14 06:47:57;;;;;;;;;;;13.90;99.90;;;;;;5065853;28;19925;-72
2022/05/14 06:50:30;;;;;;;;;;;14.00;99.90;;;;;;5065883;28;20397;-72
2022/05/14 06:53:02;;;;;;;;;;;14.00;99.90;;;;;;5062847;28;19932;-72
2022/05/14 06:55:36;;;;;;;;;;;14.10;99.90;;;;;;5069805;28;20284;-72
2022/05/14 06:58:10;;;;;;;;;;;14.10;99.90;;;;;;5072392;28;19928;-72
2022/05/14 07:00:42;;;;;;;;;;;14.20;99.90;;;;;;5067036;28;19929;-72
2022/05/14 07:08:53;;;;;;;;;;;14.50;99.90;;;;;;5069776;28;19929;-72
2022/05/14 07:11:25;;;;;;;;;;;14.60;99.90;;;;;;5071224;28;19925;-72
2022/05/14 07:13:57;;;;;;;;;;;14.70;99.90;;;;;;5068904;28;20297;-72
2022/05/14 07:16:28;;;;;;;;;;;14.80;99.90;;;;;;5067280;28;20018;-72
2022/05/14 07:19:00;;;;;;;;;;;14.80;99.90;;;;;;5065631;28;19925;-72
2022/05/14 07:21:33;;;;;;;;;;;14.90;99.90;;;;;;5057856;28;20415;-72
2022/05/14 07:24:07;;;;;;;;;;;15.00;99.90;;;;;;5062620;28;20324;-72
2022/05/14 07:26:35;;;;;;;;;;;15.00;99.90;;;;;;5064594;28;20040;-72
2022/05/14 07:29:08;;;;;;;;;;;15.10;99.90;;;;;;5060760;28;19934;-72
2022/05/14 07:31:40;;;;;;;;;;;15.20;99.90;;;;;;5065823;28;20400;-72
2022/05/14 07:34:12;;;;;;;;;;;15.30;99.90;;;;;;5061291;28;19929;-72
2022/05/14 07:36:50;;;;;;;;;;;15.40;99.90;;;;;;5058037;28;20020;-72
2022/05/14 07:39:18;;;;;;;;;;;15.50;99.90;;;;;;5064256;28;19932;-72
2022/05/14 07:41:52;;;;;;;;;;;15.60;99.90;;;;;;5067888;28;19929;-72
2022/05/14 07:44:25;;;;;;;;;;;15.70;99.90;;;;;;5067732;28;19931;-72
2022/05/14 07:46:57;;;;;;;;;;;15.80;99.90;;;;;;5073576;28;19931;-72
2022/05/14 07:49:29;;;;;;;;;;;15.90;99.90;;;;;;5067406;28;19933;-72
2022/05/14 07:52:00;;;;;;;;;;;15.90;99.90;;;;;;5068294;28;19932;-72
2022/05/14 07:54:32;;;;;;;;;;;16.00;99.90;;;;;;5061464;28;19935;-72
2022/05/14 07:57:06;;;;;;;;;;;16.10;99.90;;;;;;5066916;28;19931;-72
2022/05/14 07:59:38;;;;;;;;;;;16.20;99.90;;;;;;5061174;28;20416;-72
2022/05/14 08:02:20;;;;;;;;;;;16.30;99.90;;;;;;5060001;28;19924;-72
2022/05/14 08:04:52;;;;;;;;;;;16.40;99.90;;;;;;5062010;28;20308;-72
2022/05/14 08:07:23;;;;;;;;;;;16.60;99.90;;;;;;5062668;28;19929;-72
2022/05/14 08:09:55;;;;;;;;;;;16.70;99.90;;;;;;5067243;28;20389;-72
2022/05/14 08:12:32;;;;;;;;;;;16.80;99.90;;;;;;5064334;28;20344;-72
2022/05/14 08:15:04;;;;;;;;;;;16.90;99.90;;;;;;5063092;28;19957;-72
2022/05/14 08:17:36;;;;;;;;;;;17.00;99.90;;;;;;5058720;28;19937;-72
2022/05/14 08:20:08;;;;;;;;;;;17.10;99.90;;;;;;5060684;28;19928;-72
2022/05/14 08:25:30;;;;;;;;;;;17.30;99.90;;;;;;5058989;28;19928;-72
2022/05/14 08:28:02;;;;;;;;;;;17.40;99.90;;;;;;5059391;28;19931;-72
2022/05/14 08:30:34;;;;;;;;;;;17.40;99.90;;;;;;5062350;28;19978;-73
2022/05/14 08:33:07;;;;;;;;;;;17.50;99.90;;;;;;5054956;28;20477;-73
2022/05/14 08:35:38;;;;;;;;;;;17.60;99.90;;;;;;5062093;28;19928;-72
2022/05/14 08:38:10;;;;;;;;;;;17.70;99.90;;;;;;5064011;28;19932;-72
2022/05/14 08:40:44;;;;;;;;;;;17.80;99.90;;;;;;5060974;28;19936;-72
2022/05/14 08:43:22;;;;;;;;;;;17.90;99.90;;;;;;5073483;28;19932;-72
2022/05/14 08:45:55;;;;;;;;;;;17.90;99.90;;;;;;5060484;28;19947;-72
2022/05/14 08:48:30;;;;;;;;;;;18.00;99.90;;;;;;5063614;28;19951;-72
2022/05/14 08:51:04;;;;;;;;;;;18.10;99.90;;;;;;5052920;28;20290;-72
2022/05/14 08:53:37;;;;;;;;;;;18.20;99.90;;;;;;5057329;28;19947;-72
2022/05/14 08:56:21;;;;;;;;;;;18.20;99.90;;;;;;5064180;28;19940;-72
2022/05/14 08:59:11;;;;;;;;;;;18.30;99.90;;;;;;5060011;28;20385;-72
2022/05/14 09:01:44;;;;;;;;;;;18.40;99.90;;;;;;5058596;28;19963;-72
2022/05/14 09:04:17;;;;;;;;;;;18.50;99.90;;;;;;5057753;28;19936;-72
2022/05/14 09:06:50;;;;;;;;;;;18.60;99.90;;;;;;5064388;28;19929;-72
2022/05/14 09:09:22;;;;;;;;;;;18.60;99.90;;;;;;5064334;28;19925;-72
2022/05/14 09:11:54;;;;;;;;;;;18.60;99.90;;;;;;5071263;28;19924;-72
2022/05/14 09:14:26;;;;;;;;;;;18.70;99.90;;;;;;5064749;28;19928;-72
2022/05/14 09:16:59;;;;;;;;;;;18.80;99.90;;;;;;5063272;28;19932;-72
2022/05/14 09:19:36;;;;;;;;;;;19.00;99.90;;;;;;5083041;28;19929;-72
2022/05/14 09:22:25;;;;;;;;;;;19.10;99.90;;;;;;5057389;28;19924;-72
2022/05/14 09:25:05;;;;;;;;;;;19.20;99.90;;;;;;5059670;28;19940;-72
2022/05/14 09:27:48;;;;;;;;;;;19.20;99.90;;;;;;5065522;28;19959;-73
2022/05/14 09:30:35;;;;;;;;;;;19.30;99.90;;;;;;5073719;28;19967;-72
2022/05/14 09:33:20;;;;;;;;;;;19.40;99.90;;;;;;5054481;28;19998;-72
2022/05/14 09:35:54;;;;;;;;;;;19.40;99.90;;;;;;5063916;28;19929;-72
2022/05/14 09:38:27;;;;;;;;;;;19.60;99.90;;;;;;5062615;28;19928;-72
2022/05/14 09:41:09;;;;;;;;;;;19.50;99.90;;;;;;5067413;28;19935;-73
2022/05/14 09:43:37;;;;;;;;;;;19.50;99.90;;;;;;5063650;28;20023;-72
2022/05/14 09:46:12;;;;;;;;;;;19.50;99.90;;;;;;5066762;28;20412;-72
2022/05/14 09:48:48;;;;;;;;;;;19.50;99.90;;;;;;5075084;28;19937;-72
2022/05/14 09:51:31;;;;;;;;;;;19.70;99.90;;;;;;5066064;28;19928;-72
2022/05/14 09:54:18;;;;;;;;;;;19.80;99.90;;;;;;5066840;28;20316;-72
2022/05/14 09:57:01;;;;;;;;;;;19.90;99.90;;;;;;5062172;28;20016;-72
2022/05/14 09:59:46;;;;;;;;;;;20.00;99.90;;;;;;5063126;28;20301;-72
2022/05/14 10:02:23;;;;;;;;;;;20.10;99.90;;;;;;5061884;28;19924;-72
2022/05/14 10:05:06;;;;;;;;;;;20.30;99.90;;;;;;5066497;28;20389;-72
2022/05/14 10:07:48;;;;;;;;;;;20.40;99.90;;;;;;5062267;28;20413;-72
2022/05/14 10:10:40;;;;;;;;;;;20.50;99.90;;;;;;5064819;28;19928;-72
2022/05/14 10:13:17;;;;;;;;;;;20.60;99.90;;;;;;5065265;28;19928;-72
2022/05/14 10:16:10;;;;;;;;;;;20.70;99.90;;;;;;5067448;28;19929;-72
2022/05/14 10:19:05;;;;;;;;;;;20.70;99.90;;;;;;5070402;28;19931;-72
2022/05/14 10:21:42;;;;;;;;;;;20.80;99.90;;;;;;5025468;28;19931;-72
2022/05/14 10:27:16;;;;;;;;;;;20.90;99.90;;;;;;5061575;28;19924;-72
2022/05/14 10:30:02;;;;;;;;;;;20.90;99.90;;;;;;5067342;28;19925;-72
2022/05/14 10:32:34;;;;;;;;;;;20.90;99.90;;;;;;5065623;28;19929;-73
2022/05/14 10:35:07;;;;;;;;;;;21.00;99.90;;;;;;5059875;28;20393;-72
2022/05/14 10:37:41;;;;;;;;;;;20.90;99.90;;;;;;5056183;28;19924;-72
2022/05/14 10:40:21;;;;;;;;;;;20.90;99.90;;;;;;5082719;28;19935;-73
2022/05/14 10:42:53;;;;;;;;;;;21.00;99.90;;;;;;5060875;28;19928;-72
2022/05/14 10:45:32;;;;;;;;;;;21.10;99.90;;;;;;5060316;28;19947;-73
2022/05/14 10:48:14;;;;;;;;;;;21.10;99.90;;;;;;5081458;28;19924;-72
2022/05/14 10:50:45;;;;;;;;;;;21.00;99.90;;;;;;5081221;28;19928;-73
2022/05/14 10:53:17;;;;;;;;;;;21.10;99.90;;;;;;5068863;28;19929;-73
2022/05/14 10:55:49;;;;;;;;;;;21.30;99.90;;;;;;5065162;28;19935;-72
2022/05/14 10:58:35;;;;;;;;;;;21.40;99.90;;;;;;5099196;28;19932;-72
2022/05/14 11:01:28;;;;;;;;;;;21.50;99.90;;;;;;5067135;28;19935;-72
2022/05/14 11:04:12;;;;;;;;;;;21.50;99.90;;;;;;5065242;28;20348;-73
2022/05/14 11:06:52;;;;;;;;;;;21.60;98.30;;;;;;5076523;28;19932;-73
2022/05/14 11:09:20;;;;;;;;;;;21.60;98.30;;;;;;5087595;28;19930;-72
2022/05/14 11:11:49;;;;;;;;;;;21.70;99.60;;;;;;5049827;28;19928;-72
2022/05/14 11:14:21;;;;;;;;;;;21.70;99.90;;;;;;5063021;28;19925;-72
2022/05/14 11:16:53;;;;;;;;;;;21.70;97.50;;;;;;5066108;28;19940;-72
2022/05/14 11:19:32;;;;;;;;;;;21.70;97.00;;;;;;5065769;28;19929;-72
2022/05/14 11:22:04;;;;;;;;;;;21.70;96.90;;;;;;5082079;28;20111;-72
2022/05/14 11:24:37;;;;;;;;;;;21.90;98.90;;;;;;5066205;28;19925;-72
2022/05/14 11:27:09;;;;;;;;;;;22.00;99.90;;;;;;5069255;28;19929;-72
2022/05/14 11:29:52;;;;;;;;;;;21.90;98.30;;;;;;5076731;28;20372;-72
2022/05/14 11:32:25;;;;;;;;;;;21.80;99.00;;;;;;5066632;28;19932;-72
2022/05/14 11:34:58;;;;;;;;;;;21.70;96.30;;;;;;5066978;28;19925;-71
2022/05/14 11:37:35;;;;;;;;;;;21.70;97.10;;;;;;5070105;28;20331;-72
2022/05/14 11:40:13;;;;;;;;;;;21.90;96.80;;;;;;5069162;28;20304;-72
2022/05/14 11:42:46;;;;;;;;;;;22.00;97.30;;;;;;5066551;28;19928;-72
2022/05/14 11:45:14;;;;;;;;;;;22.00;96.50;;;;;;5053986;28;19932;-72
2022/05/14 11:47:49;;;;;;;;;;;22.30;97.80;;;;;;5072953;28;19928;-72
2022/05/14 11:50:25;;;;;;;;;;;22.30;97.50;;;;;;5066190;28;19929;-72
2022/05/14 11:53:03;;;;;;;;;;;22.50;95.60;;;;;;5083156;28;19924;-72
2022/05/14 11:55:37;;;;;;;;;;;22.50;94.10;;;;;;5064375;28;19936;-72
2022/05/14 11:58:11;;;;;;;;;;;22.60;94.20;;;;;;5066182;28;19925;-72
2022/05/14 12:00:45;;;;;;;;;;;22.60;93.80;;;;;;5066952;28;19935;-72
2022/05/14 12:03:16;;;;;;;;;;;22.70;93.10;;;;;;5065379;28;19925;-72
2022/05/14 12:05:48;;;;;;;;;;;22.80;94.10;;;;;;5060831;28;19924;-72
2022/05/14 12:08:19;;;;;;;;;;;22.70;92.80;;;;;;5067732;28;20738;-72
2022/05/14 12:10:53;;;;;;;;;;;22.70;93.90;;;;;;5064186;28;19924;-72
2022/05/14 12:13:35;;;;;;;;;;;22.60;92.50;;;;;;5068684;28;19940;-72
2022/05/14 12:16:07;;;;;;;;;;;22.70;91.20;;;;;;5063345;28;19932;-72
2022/05/14 12:18:42;;;;;;;;;;;22.70;92.10;;;;;;5066451;28;19924;-72
2022/05/14 12:21:16;;;;;;;;;;;22.80;92.50;;;;;;5063811;28;20130;-71
2022/05/14 12:23:48;;;;;;;;;;;22.90;92.00;;;;;;5094685;28;19928;-72
2022/05/14 12:26:33;;;;;;;;;;;23.00;91.50;;;;;;5069336;28;20296;-72
2022/05/14 12:29:03;;;;;;;;;;;23.00;90.50;;;;;;5068353;28;19991;-71
2022/05/14 12:34:32;;;;;;;;;;;23.00;91.30;;;;;;5064106;28;20416;-72
2022/05/14 12:37:11;;;;;;;;;;;23.20;93.00;;;;;;5069299;28;19928;-72
2022/05/14 12:39:43;;;;;;;;;;;23.30;92.10;;;;;;5059181;28;19947;-72
2022/05/14 12:42:09;;;;;;;;;;;23.40;90.70;;;;;;5064818;28;19950;-73
2022/05/14 12:44:51;;;;;;;;;;;23.30;89.50;;;;;;5064522;28;19928;-72
2022/05/14 12:47:24;;;;;;;;;;;23.20;89.70;;;;;;5050515;28;19925;-72
2022/05/14 12:49:56;;;;;;;;;;;23.20;90.00;;;;;;5063358;28;19925;-72
2022/05/14 12:52:29;;;;;;;;;;;23.10;90.20;;;;;;5066580;28;19936;-72
2022/05/14 12:55:03;;;;;;;;;;;23.10;90.20;;;;;;5061194;28;19928;-72
2022/05/14 12:57:31;;;;;;;;;;;23.30;90.30;;;;;;5058060;28;19929;-72
2022/05/14 13:00:03;;;;;;;;;;;23.40;87.30;;;;;;5060851;28;19931;-72
2022/05/14 13:02:38;;;;;;;;;;;23.40;87.00;;;;;;5067538;28;19936;-72
2022/05/14 13:05:16;;;;;;;;;;;23.50;86.50;;;;;;5064676;28;19928;-72
2022/05/14 13:07:51;;;;;;;;;;;23.70;85.30;;;;;;5063654;28;19929;-72
2022/05/14 13:10:25;;;;;;;;;;;23.90;84.60;;;;;;5069745;28;19928;-72
2022/05/14 13:12:59;;;;;;;;;;;24.00;83.80;;;;;;5069668;28;19994;-73
2022/05/14 13:15:32;;;;;;;;;;;24.10;83.90;;;;;;5079859;28;19929;-72
2022/05/14 13:18:10;;;;;;;;;;;24.20;81.40;;;;;;5052512;28;20381;-72
2022/05/14 13:20:42;;;;;;;;;;;24.20;81.80;;;;;;5061861;28;19932;-72
2022/05/14 13:23:19;;;;;;;;;;;24.10;82.60;;;;;;5064897;28;20572;-72
2022/05/14 13:26:03;;;;;;;;;;;24.20;82.70;;;;;;5062868;28;19929;-72
2022/05/14 13:28:36;;;;;;;;;;;24.30;81.60;;;;;;5072636;28;19929;-73
2022/05/14 13:31:27;;;;;;;;;;;24.40;81.20;;;;;;5058907;28;20304;-73
2022/05/14 13:37:09;;;;;;;;;;;24.60;76.60;;;;;;5059768;28;19932;-72
2022/05/14 13:39:45;;;;;;;;;;;24.70;76.10;;;;;;5067795;28;19929;-73
2022/05/14 13:42:34;;;;;;;;;;;24.90;75.60;;;;;;5054112;28;20332;-73
2022/05/14 13:45:08;;;;;;;;;;;25.10;70.00;;;;;;5064226;28;20391;-73
2022/05/14 13:47:41;;;;;;;;;;;25.30;71.80;;;;;;5059405;28;19929;-72
2022/05/14 13:50:13;;;;;;;;;;;25.50;71.00;;;;;;5057007;28;19936;-73
2022/05/14 13:52:49;;;;;;;;;;;25.60;70.60;;;;;;5060559;28;19925;-73
2022/05/14 13:55:29;;;;;;;;;;;25.60;65.20;;;;;;5064425;28;19928;-73
2022/05/14 13:58:07;;;;;;;;;;;25.80;67.20;;;;;;5070665;28;19929;-72
2022/05/14 14:00:41;;;;;;;;;;;25.90;69.20;;;;;;5070286;28;19951;-72
2022/05/14 14:03:16;;;;;;;;;;;25.90;68.60;;;;;;5071158;28;19924;-72
2022/05/14 14:05:49;;;;;;;;;;;25.60;65.60;;;;;;5066641;28;19931;-72
2022/05/14 14:08:25;;;;;;;;;;;25.50;65.80;;;;;;5066744;28;20286;-72
2022/05/14 14:10:56;;;;;;;;;;;25.50;62.80;;;;;;5069939;28;19929;-72
2022/05/14 14:13:28;;;;;;;;;;;25.50;62.70;;;;;;5061136;28;20325;-72
2022/05/14 14:16:00;;;;;;;;;;;25.60;61.10;;;;;;5065307;28;19929;-75
2022/05/14 14:18:31;;;;;;;;;;;25.70;63.20;;;;;;5065571;28;19958;-72
2022/05/14 14:21:05;;;;;;;;;;;25.90;60.70;;;;;;5062376;28;19948;-73
2022/05/14 14:23:42;;;;;;;;;;;26.10;59.80;;;;;;5062336;28;19924;-73
2022/05/14 14:26:13;;;;;;;;;;;26.30;58.20;;;;;;5068224;28;19924;-72
2022/05/14 14:28:48;;;;;;;;;;;26.50;59.50;;;;;;5063520;28;19925;-73
2022/05/14 14:31:20;;;;;;;;;;;26.60;57.70;;;;;;5065539;28;19925;-72
2022/05/14 14:33:52;;;;;;;;;;;26.60;56.50;;;;;;5068428;28;19932;-74
2022/05/14 14:36:24;;;;;;;;;;;26.50;57.70;;;;;;5065616;28;19932;-72
2022/05/14 14:38:55;;;;;;;;;;;26.30;58.10;;;;;;5071977;28;19939;-72
2022/05/14 14:41:27;;;;;;;;;;;26.00;55.20;;;;;;5056355;28;19947;-72
2022/05/14 14:43:59;;;;;;;;;;;26.00;56.80;;;;;;5063237;28;19936;-72
2022/05/14 14:46:30;;;;;;;;;;;26.10;60.20;;;;;;5065383;28;19924;-73
2022/05/14 14:49:07;;;;;;;;;;;26.30;58.60;;;;;;5064664;28;19933;-73
2022/05/14 14:51:40;;;;;;;;;;;26.60;58.30;;;;;;5065815;28;20396;-73
2022/05/14 14:54:11;;;;;;;;;;;27.00;57.70;;;;;;5066416;28;19928;-73
2022/05/14 14:56:43;;;;;;;;;;;27.10;55.70;;;;;;5064410;28;19928;-73
2022/05/14 14:59:14;;;;;;;;;;;27.30;55.00;;;;;;5060380;28;19936;-72
2022/05/14 15:01:49;;;;;;;;;;;27.30;54.30;;;;;;5070383;28;20015;-72
2022/05/14 15:04:31;;;;;;;;;;;27.30;54.10;;;;;;5057725;28;19928;-73
2022/05/14 15:07:04;;;;;;;;;;;27.30;53.20;;;;;;5065947;28;19936;-73
2022/05/14 15:09:37;;;;;;;;;;;27.30;53.70;;;;;;5063288;28;20423;-73
2022/05/14 15:12:09;;;;;;;;;;;27.40;53.40;;;;;;5067125;28;19932;-73
2022/05/14 15:14:42;;;;;;;;;;;27.30;52.00;;;;;;5071890;28;20325;-73
2022/05/14 15:17:14;;;;;;;;;;;27.20;53.00;;;;;;5060515;28;19928;-73